Time;durP1;ratioP1;P1;durP2;ratioP2;P2;SDS_P1;SDS_P2;PMS_P1;PMS_P2;Temp;Humidity;BMP_temperature;BMP_pressure;BME280_temperature;BME280_humidity;BME280_pressure;Samples;Min_cycle;Max_cycle;Signal;HPM_P1;HPM_P2
2023/06/28 00:02:25;;;;;;;5.63;2.05;;;;;;;17.13;100.00;101718.75;5237995;28;20033;-69
2023/06/28 00:04:56;;;;;;;6.03;2.08;;;;;;;17.10;100.00;101728.97;5236031;28;20494;-69
2023/06/28 00:07:28;;;;;;;5.50;2.42;;;;;;;17.12;100.00;101730.53;5227019;28;20730;-69
2023/06/28 00:09:59;;;;;;;5.38;1.92;;;;;;;16.98;100.00;101723.69;5233025;28;20072;-69
2023/06/28 00:12:32;;;;;;;8.55;2.38;;;;;;;17.05;100.00;101727.53;5226674;28;20570;-68
2023/06/28 00:15:04;;;;;;;5.25;2.20;;;;;;;17.10;100.00;101732.50;5247559;28;20100;-69
2023/06/28 00:17:35;;;;;;;7.15;3.03;;;;;;;17.17;100.00;101740.91;5233026;28;20017;-69
2023/06/28 00:20:07;;;;;;;7.93;2.63;;;;;;;17.16;100.00;101744.59;5224739;28;20032;-69
2023/06/28 00:22:39;;;;;;;6.32;2.58;;;;;;;17.07;100.00;101740.88;5248946;28;20050;-69
2023/06/28 00:25:11;;;;;;;6.63;3.30;;;;;;;17.04;100.00;101735.75;5232233;28;20044;-69
2023/06/28 00:27:42;;;;;;;7.85;3.38;;;;;;;17.04;100.00;101730.38;5229169;28;20017;-69
2023/06/28 00:30:14;;;;;;;7.53;3.65;;;;;;;16.94;100.00;101727.66;5218947;28;20850;-69
2023/06/28 00:32:45;;;;;;;10.30;3.33;;;;;;;16.97;100.00;101731.91;5213894;28;20049;-68
2023/06/28 00:35:16;;;;;;;6.97;3.05;;;;;;;16.92;100.00;101743.09;5215195;28;20065;-69
2023/06/28 00:37:48;;;;;;;9.63;3.45;;;;;;;16.97;100.00;101742.69;5227765;28;20476;-69
2023/06/28 00:40:19;;;;;;;7.28;3.03;;;;;;;16.85;100.00;101737.41;5222319;28;20542;-69
2023/06/28 00:42:50;;;;;;;6.28;2.90;;;;;;;16.86;100.00;101743.66;5213418;28;20080;-69
2023/06/28 00:45:22;;;;;;;7.75;2.65;;;;;;;16.83;100.00;101744.75;5216770;28;20108;-69
2023/06/28 00:47:54;;;;;;;7.55;2.97;;;;;;;16.89;100.00;101742.53;5218334;28;20130;-69
2023/06/28 00:50:27;;;;;;;7.38;2.80;;;;;;;16.87;100.00;101748.03;5227179;28;20037;-69
2023/06/28 00:52:58;;;;;;;7.35;2.42;;;;;;;16.75;100.00;101738.34;5213339;28;20025;-69
2023/06/28 00:55:30;;;;;;;12.05;3.65;;;;;;;16.72;100.00;101738.59;5217200;28;20025;-69
2023/06/28 00:58:01;;;;;;;7.13;2.85;;;;;;;16.71;100.00;101732.34;5235870;28;20064;-69
2023/06/28 01:00:33;;;;;;;7.72;3.00;;;;;;;16.91;100.00;101741.38;5223531;28;20040;-69
2023/06/28 01:03:04;;;;;;;6.82;2.75;;;;;;;16.96;100.00;101738.31;5215302;28;20025;-69
2023/06/28 01:05:35;;;;;;;6.60;3.08;;;;;;;16.84;100.00;101743.78;5213553;28;20555;-69
2023/06/28 01:08:07;;;;;;;7.30;2.30;;;;;;;16.79;100.00;101737.91;5215550;28;20056;-69
2023/06/28 01:10:39;;;;;;;8.10;2.40;;;;;;;16.75;100.00;101738.34;5216442;28;21392;-69
2023/06/28 01:13:11;;;;;;;7.28;2.47;;;;;;;16.81;100.00;101744.00;5214103;28;20052;-69
2023/06/28 01:15:42;;;;;;;5.60;2.50;;;;;;;16.79;100.00;101747.84;5220843;28;20055;-69
2023/06/28 01:18:16;;;;;;;7.32;2.50;;;;;;;16.63;100.00;101737.59;5221119;28;20041;-69
2023/06/28 01:20:49;;;;;;;7.30;2.60;;;;;;;16.63;100.00;101745.66;5222593;28;20084;-69
2023/06/28 01:23:27;;;;;;;7.95;2.35;;;;;;;16.59;100.00;101737.00;5218908;28;20080;-68
2023/06/28 01:26:02;;;;;;;6.22;2.42;;;;;;;16.56;100.00;101729.16;5224014;28;20033;-69
2023/06/28 01:28:35;;;;;;;5.68;2.45;;;;;;;16.56;100.00;101736.41;5236263;28;20036;-69
2023/06/28 01:31:07;;;;;;;6.95;2.13;;;;;;;16.53;100.00;101733.97;5233713;28;20041;-69
2023/06/28 01:33:42;;;;;;;7.95;2.78;;;;;;;16.44;100.00;101741.88;5220270;28;20069;-69
2023/06/28 01:36:13;;;;;;;6.82;2.38;;;;;;;16.69;100.00;101744.28;5242685;28;20030;-69
2023/06/28 01:38:45;;;;;;;5.80;2.30;;;;;;;16.64;100.00;101734.75;5219802;28;20083;-68
2023/06/28 01:41:17;;;;;;;4.38;2.30;;;;;;;16.52;100.00;101719.66;5228876;28;20111;-69
2023/06/28 01:43:49;;;;;;;13.73;8.75;;;;;;;16.52;100.00;101729.59;5227291;28;20107;-69
2023/06/28 01:46:20;;;;;;;18.98;13.82;;;;;;;16.59;100.00;101731.59;5220754;28;20037;-69
2023/06/28 01:48:52;;;;;;;17.73;14.93;;;;;;;16.51;100.00;101722.47;5220522;28;20136;-69
2023/06/28 01:51:24;;;;;;;17.17;11.80;;;;;;;16.61;100.00;101729.63;5222727;28;20460;-69
2023/06/28 01:53:55;;;;;;;13.90;9.98;;;;;;;16.61;100.00;101723.38;5219046;28;20203;-69
2023/06/28 01:56:27;;;;;;;12.00;8.93;;;;;;;16.62;100.00;101735.88;5228668;28;20033;-69
2023/06/28 01:58:58;;;;;;;10.38;6.88;;;;;;;16.70;100.00;101732.50;5242049;28;20028;-69
2023/06/28 02:01:30;;;;;;;12.27;8.93;;;;;;;16.57;100.00;101724.66;5237073;28;20067;-69
2023/06/28 02:04:02;;;;;;;27.10;23.92;;;;;;;16.59;100.00;101723.53;5241244;28;20029;-69
2023/06/28 02:06:33;;;;;;;44.17;39.30;;;;;;;16.59;100.00;101720.81;5238093;28;20048;-69
2023/06/28 02:09:05;;;;;;;43.08;38.72;;;;;;;16.50;100.00;101712.69;5235351;28;20108;-69
2023/06/28 02:11:36;;;;;;;42.47;38.10;;;;;;;16.48;100.00;101706.59;5233975;28;20397;-68
2023/06/28 02:14:08;;;;;;;43.47;39.15;;;;;;;16.49;100.00;101713.69;5223261;28;20040;-68
2023/06/28 02:16:41;;;;;;;22.33;19.67;;;;;;;16.47;100.00;101711.13;5228494;28;20361;-69
2023/06/28 02:19:12;;;;;;;16.08;13.07;;;;;;;16.40;100.00;101710.81;5242797;28;20064;-68
2023/06/28 02:21:44;;;;;;;12.95;7.90;;;;;;;16.40;100.00;101709.97;5234031;28;20416;-69
2023/06/28 02:24:15;;;;;;;9.23;5.18;;;;;;;16.42;100.00;101705.28;5238178;28;20025;-69
2023/06/28 02:26:46;;;;;;;10.05;4.70;;;;;;;16.49;100.00;101713.69;5219374;28;20025;-68
2023/06/28 02:29:18;;;;;;;8.48;3.80;;;;;;;16.46;100.00;101710.28;5237306;28;20292;-69
2023/06/28 02:31:49;;;;;;;10.45;3.58;;;;;;;16.48;100.00;101702.06;5234856;28;20030;-69
2023/06/28 02:34:20;;;;;;;6.72;3.45;;;;;;;16.58;100.00;101700.25;5218074;28;20072;-69
2023/06/28 02:36:52;;;;;;;7.45;3.22;;;;;;;16.55;100.00;101695.16;5215545;28;20045;-69
2023/06/28 02:39:24;;;;;;;8.10;3.00;;;;;;;16.66;100.00;101704.97;5216844;28;20029;-69
2023/06/28 02:41:55;;;;;;;10.40;3.95;;;;;;;16.66;100.00;101705.84;5215763;28;20017;-69
2023/06/28 02:44:27;;;;;;;5.70;3.20;;;;;;;16.69;100.00;101698.47;5218631;28;20195;-69
2023/06/28 02:46:58;;;;;;;8.55;3.75;;;;;;;16.76;100.00;101715.78;5216437;28;20025;-69
2023/06/28 02:49:29;;;;;;;8.43;4.05;;;;;;;16.57;100.00;101712.03;5224388;28;20665;-71
2023/06/28 02:52:01;;;;;;;10.90;3.45;;;;;;;16.52;100.00;101716.97;5217782;28;20029;-70
2023/06/28 02:54:32;;;;;;;7.95;3.40;;;;;;;16.45;100.00;101707.69;5213777;28;20029;-71
2023/06/28 02:57:08;;;;;;;6.50;3.33;;;;;;;16.38;100.00;101712.78;5222592;28;20029;-70
2023/06/28 02:59:39;;;;;;;9.60;3.95;;;;;;;16.50;100.00;101712.69;5229172;28;20026;-70
2023/06/28 03:02:14;;;;;;;9.93;4.05;;;;;;;16.54;100.00;101719.53;5230000;28;20383;-70
2023/06/28 03:04:45;;;;;;;6.65;4.03;;;;;;;16.48;100.00;101712.84;5215644;28;20063;-71
2023/06/28 03:07:17;;;;;;;7.47;4.55;;;;;;;16.47;100.00;101719.19;5214389;28;20061;-71
2023/06/28 03:09:49;;;;;;;7.15;3.90;;;;;;;16.40;100.00;101715.34;5214360;28;20038;-71
2023/06/28 03:12:20;;;;;;;11.85;4.38;;;;;;;16.51;100.00;101723.34;5217761;28;20037;-70
2023/06/28 03:14:52;;;;;;;8.65;4.38;;;;;;;16.39;100.00;101729.78;5215280;28;20033;-70
2023/06/28 03:17:23;;;;;;;9.80;4.85;;;;;;;16.37;100.00;101721.84;5215229;28;20088;-70
2023/06/28 03:19:54;;;;;;;8.05;4.30;;;;;;;16.31;100.00;101726.91;5213242;28;20388;-70
2023/06/28 03:22:26;;;;;;;10.40;4.55;;;;;;;16.45;100.00;101719.34;5215775;28;20456;-70
2023/06/28 03:24:57;;;;;;;11.30;4.65;;;;;;;16.45;100.00;101719.34;5216522;28;20032;-70
2023/06/28 03:27:28;;;;;;;9.25;4.20;;;;;;;16.34;100.00;101718.56;5219281;28;20036;-70
2023/06/28 03:30:00;;;;;;;8.82;4.40;;;;;;;16.32;100.00;101712.44;5228148;28;20040;-71
2023/06/28 03:32:31;;;;;;;10.13;4.50;;;;;;;16.26;100.00;101713.84;5233349;28;20370;-70
2023/06/28 03:35:03;;;;;;;9.75;5.43;;;;;;;16.38;100.00;101711.94;5225548;28;20499;-70
2023/06/28 03:37:34;;;;;;;7.82;4.80;;;;;;;16.29;100.00;101715.44;5226372;28;20107;-71
2023/06/28 03:40:07;;;;;;;9.73;4.90;;;;;;;16.35;100.00;101721.13;5229984;28;20033;-70
2023/06/28 03:42:39;;;;;;;7.68;4.80;;;;;;;16.22;100.00;101709.72;5229796;28;20483;-70
2023/06/28 03:45:10;;;;;;;9.73;4.85;;;;;;;16.25;100.00;101721.06;5229041;28;20182;-71
2023/06/28 03:47:42;;;;;;;10.65;4.72;;;;;;;16.20;100.00;101712.56;5228051;28;20047;-71
2023/06/28 03:50:14;;;;;;;9.27;4.85;;;;;;;16.18;100.00;101714.50;5234008;28;20403;-71
2023/06/28 03:52:45;;;;;;;9.38;4.65;;;;;;;16.27;100.00;101716.41;5233022;28;20044;-70
2023/06/28 03:55:16;;;;;;;11.95;4.82;;;;;;;16.18;100.00;101717.19;5232392;28;20479;-70
2023/06/28 03:57:48;;;;;;;8.52;4.95;;;;;;;16.23;100.00;101711.44;5233585;28;20243;-70
2023/06/28 04:00:19;;;;;;;8.10;4.75;;;;;;;16.20;100.00;101700.91;5235259;28;20076;-70
2023/06/28 04:02:51;;;;;;;9.13;5.03;;;;;;;16.18;100.00;101702.88;5231374;28;20416;-70
2023/06/28 04:05:22;;;;;;;10.52;5.18;;;;;;;16.17;100.00;101701.19;5229985;28;20412;-70
2023/06/28 04:07:58;;;;;;;7.72;4.53;;;;;;;16.12;100.00;101704.28;5218410;28;20115;-70
2023/06/28 04:10:29;;;;;;;10.75;5.18;;;;;;;16.10;100.00;101702.72;5234524;28;20034;-70
2023/06/28 04:13:01;;;;;;;9.52;5.57;;;;;;;16.13;100.00;101697.91;5224148;28;20052;-70
2023/06/28 04:15:32;;;;;;;7.78;4.88;;;;;;;16.11;100.00;101694.50;5235513;28;20108;-70
2023/06/28 04:18:04;;;;;;;11.85;5.82;;;;;;;16.27;100.00;101694.03;5235987;28;20026;-70
2023/06/28 04:20:35;;;;;;;9.75;5.15;;;;;;;16.25;100.00;101701.38;5230392;28;20034;-70
2023/06/28 04:23:07;;;;;;;10.65;5.10;;;;;;;16.27;100.00;101699.41;5224009;28;20026;-69
2023/06/28 04:25:38;;;;;;;11.20;6.82;;;;;;;16.35;100.00;101701.44;5237645;28;20510;-69
2023/06/28 04:28:09;;;;;;;12.02;5.50;;;;;;;16.40;100.00;101704.59;5229358;28;20025;-70
2023/06/28 04:30:41;;;;;;;10.18;5.15;;;;;;;16.25;100.00;101702.22;5233360;28;20033;-70
2023/06/28 04:33:18;;;;;;;8.70;5.40;;;;;;;16.39;100.00;101701.00;5230593;28;20035;-70
2023/06/28 04:35:50;;;;;;;9.18;5.10;;;;;;;16.35;100.00;101696.03;5231686;28;20039;-70
2023/06/28 04:38:22;;;;;;;10.45;5.32;;;;;;;16.51;100.00;101704.50;5233176;28;20035;-70
2023/06/28 04:40:56;;;;;;;11.43;5.57;;;;;;;16.38;100.00;101703.88;5233653;28;20435;-70
2023/06/28 04:43:27;;;;;;;12.60;6.40;;;;;;;16.50;100.00;101708.16;5230037;28;20025;-70
2023/06/28 04:45:58;;;;;;;11.25;5.40;;;;;;;16.49;100.00;101706.44;5234925;28;20820;-70
2023/06/28 04:48:30;;;;;;;10.00;5.38;;;;;;;16.54;100.00;101700.66;5228251;28;20048;-70
2023/06/28 04:51:01;;;;;;;9.98;5.85;;;;;;;16.52;100.00;101698.09;5229903;28;20057;-70
2023/06/28 04:53:33;;;;;;;9.93;5.28;;;;;;;16.46;100.00;101698.66;5228686;28;20037;-69
2023/06/28 04:56:05;;;;;;;13.00;5.75;;;;;;;16.50;100.00;101700.09;5225804;28;20091;-70
2023/06/28 04:58:37;;;;;;;10.00;5.70;;;;;;;16.58;100.00;101700.25;5226614;28;20017;-70
2023/06/28 05:01:09;;;;;;;9.02;5.35;;;;;;;16.52;100.00;101700.78;5229345;28;20056;-70
2023/06/28 05:03:40;;;;;;;9.68;5.70;;;;;;;16.63;100.00;101702.56;5230728;28;20026;-70
2023/06/28 05:06:13;;;;;;;9.25;5.90;;;;;;;16.63;100.00;101705.25;5233547;28;20046;-69
2023/06/28 05:08:44;;;;;;;10.30;4.95;;;;;;;16.58;100.00;101697.56;5229531;28;20032;-70
2023/06/28 05:11:15;;;;;;;10.93;5.97;;;;;;;16.65;100.00;101695.19;5233843;28;20024;-70
2023/06/28 05:13:47;;;;;;;11.23;5.32;;;;;;;16.59;100.00;101704.66;5218729;28;20034;-70
2023/06/28 05:16:18;;;;;;;11.55;5.40;;;;;;;16.60;100.00;101703.66;5230668;28;20041;-70
2023/06/28 05:18:50;;;;;;;9.93;5.30;;;;;;;16.69;100.00;101703.84;5221885;28;20535;-70
2023/06/28 05:21:21;;;;;;;8.98;5.55;;;;;;;16.61;100.00;101708.06;5222762;28;20109;-70
2023/06/28 05:23:52;;;;;;;11.43;5.57;;;;;;;16.65;100.00;101719.44;5220143;28;20583;-70
2023/06/28 05:26:24;;;;;;;13.38;6.07;;;;;;;16.79;100.00;101718.19;5220694;28;20018;-69
2023/06/28 05:28:55;;;;;;;11.18;5.80;;;;;;;16.76;100.00;101715.78;5218397;28;20356;-70
2023/06/28 05:31:27;;;;;;;11.48;5.45;;;;;;;16.67;100.00;101712.06;5230874;28;20033;-69
2023/06/28 05:33:58;;;;;;;9.88;6.07;;;;;;;16.74;100.00;101709.66;5230233;28;20520;-70
2023/06/28 05:36:30;;;;;;;11.77;5.93;;;;;;;16.71;100.00;101697.31;5214671;28;20024;-70
2023/06/28 05:39:02;;;;;;;10.85;5.88;;;;;;;16.73;100.00;101695.34;5225795;28;20065;-70
2023/06/28 05:41:35;;;;;;;12.90;5.93;;;;;;;16.79;100.00;101699.34;5215969;28;20093;-70
2023/06/28 05:44:06;;;;;;;10.38;5.30;;;;;;;16.81;100.00;101692.81;5230126;28;20029;-70
2023/06/28 05:46:37;;;;;;;11.80;6.05;;;;;;;16.79;100.00;101693.94;5233410;28;20031;-70
2023/06/28 05:49:09;;;;;;;11.85;6.45;;;;;;;16.78;100.00;101697.63;5221993;28;20026;-70
2023/06/28 05:51:40;;;;;;;11.57;5.70;;;;;;;16.83;100.00;101684.63;5233105;28;20056;-70
2023/06/28 05:54:12;;;;;;;11.18;5.93;;;;;;;16.83;100.00;101684.63;5233650;28;20474;-70
2023/06/28 05:56:43;;;;;;;10.02;6.22;;;;;;;16.91;100.00;101687.47;5230886;28;20060;-70
2023/06/28 05:59:15;;;;;;;12.02;6.15;;;;;;;16.92;100.00;101674.88;5227830;28;20061;-70
2023/06/28 06:01:46;;;;;;;12.98;6.80;;;;;;;17.09;100.00;101684.13;5233548;28;20025;-69
2023/06/28 06:04:18;;;;;;;9.10;5.38;;;;;;;17.02;100.00;101675.72;5237015;28;20407;-69
2023/06/28 06:06:49;;;;;;;14.82;6.72;;;;;;;17.05;100.00;101684.41;5228210;28;20057;-69
2023/06/28 06:09:21;;;;;;;13.45;6.65;;;;;;;17.09;100.00;101692.22;5227550;28;20113;-70
2023/06/28 06:11:52;;;;;;;12.88;6.50;;;;;;;17.13;100.00;101690.94;5233859;28;20030;-69
2023/06/28 06:14:23;;;;;;;10.35;6.88;;;;;;;17.23;100.00;101676.47;5232690;28;20470;-70
2023/06/28 06:16:55;;;;;;;11.77;7.00;;;;;;;17.38;100.00;101679.59;5231274;28;20365;-70
2023/06/28 06:19:26;;;;;;;12.93;7.15;;;;;;;17.31;100.00;101683.84;5246549;28;20026;-70
2023/06/28 06:21:57;;;;;;;12.93;7.75;;;;;;;17.40;100.00;101692.94;5233247;28;20030;-69
2023/06/28 06:24:29;;;;;;;11.93;7.18;;;;;;;17.36;100.00;101695.06;5220342;28;20025;-70
2023/06/28 06:27:00;;;;;;;17.02;7.13;;;;;;;17.36;100.00;101691.53;5229158;28;20357;-69
2023/06/28 06:29:32;;;;;;;13.52;6.90;;;;;;;17.35;100.00;101685.25;5231659;28;20029;-69
2023/06/28 06:32:03;;;;;;;11.40;6.65;;;;;;;17.39;100.00;101686.72;5228223;28;20037;-69
2023/06/28 06:34:35;;;;;;;10.57;6.25;;;;;;;17.39;100.00;101681.31;5228177;28;20472;-69
2023/06/28 06:37:12;;;;;;;11.27;6.13;;;;;;;17.42;100.00;101690.97;5227556;28;20619;-69
2023/06/28 06:39:43;;;;;;;15.07;7.40;;;;;;;17.40;100.00;101687.56;5228869;28;20030;-69
2023/06/28 06:42:14;;;;;;;12.85;7.10;;;;;;;17.37;100.00;101687.84;5222600;28;20022;-69
2023/06/28 06:44:46;;;;;;;11.60;6.95;;;;;;;17.47;100.00;101691.41;5228813;28;20039;-69
2023/06/28 06:47:17;;;;;;;12.07;6.72;;;;;;;17.67;100.00;101694.94;5232076;28;20843;-70
2023/06/28 06:49:49;;;;;;;12.45;7.05;;;;;;;17.62;100.00;101695.38;5230701;28;20123;-70
2023/06/28 06:52:20;;;;;;;12.15;6.97;;;;;;;17.69;100.00;101692.94;5213930;28;20116;-69
2023/06/28 06:54:51;;;;;;;9.98;6.20;;;;;;;17.64;100.00;101688.00;5213827;28;20458;-69
2023/06/28 06:57:23;;;;;;;11.63;6.18;;;;;;;17.60;100.00;101691.97;5219907;28;20033;-69
2023/06/28 06:59:54;;;;;;;9.63;6.18;;;;;;;17.68;100.00;101693.94;5230602;28;20036;-69
2023/06/28 07:02:26;;;;;;;12.40;6.45;;;;;;;17.71;100.00;101690.09;5233396;28;20026;-69
2023/06/28 07:04:57;;;;;;;11.88;6.60;;;;;;;17.68;100.00;101693.06;5228114;28;20057;-69
2023/06/28 07:07:28;;;;;;;13.25;5.72;;;;;;;17.74;100.00;101696.06;5226415;28;20348;-69
2023/06/28 07:10:00;;;;;;;11.88;6.18;;;;;;;17.70;100.00;101702.75;5229851;28;20029;-69
2023/06/28 07:12:32;;;;;;;10.43;5.28;;;;;;;17.65;100.00;101705.03;5223593;28;20029;-69
2023/06/28 07:15:04;;;;;;;10.20;5.85;;;;;;;17.71;100.00;101709.00;5225203;28;20022;-69
2023/06/28 07:17:35;;;;;;;8.95;5.57;;;;;;;17.70;100.00;101716.25;5232477;28;20392;-68
2023/06/28 07:20:07;;;;;;;10.70;6.13;;;;;;;17.85;100.00;101708.56;5226920;28;20472;-69
2023/06/28 07:22:39;;;;;;;10.60;5.63;;;;;;;17.73;100.00;101704.31;5223686;28;20116;-69
2023/06/28 07:25:11;;;;;;;8.48;4.78;;;;;;;17.80;100.00;101706.28;5230764;28;20040;-69
2023/06/28 07:27:43;;;;;;;10.05;5.10;;;;;;;17.82;100.00;101719.66;5242406;28;20033;-69
2023/06/28 07:30:14;;;;;;;10.13;5.45;;;;;;;17.74;100.00;101712.28;5234016;28;20029;-68
2023/06/28 07:32:46;;;;;;;8.35;4.60;;;;;;;17.91;100.00;101710.72;5232427;28;20132;-69
2023/06/28 07:35:17;;;;;;;9.77;4.93;;;;;;;17.78;100.00;101707.44;5227798;28;20030;-69
2023/06/28 07:37:48;;;;;;;9.02;4.57;;;;;;;17.70;100.00;101700.06;5234325;28;20033;-69
2023/06/28 07:40:20;;;;;;;12.20;5.70;;;;;;;17.79;100.00;101711.81;5242366;28;20036;-69
2023/06/28 07:42:51;;;;;;;11.25;5.10;;;;;;;17.81;100.00;101709.84;5236989;28;20032;-69
2023/06/28 07:45:23;;;;;;;8.48;5.32;;;;;;;17.90;100.00;101700.91;5242585;28;20033;-69
2023/06/28 07:47:54;;;;;;;9.00;4.93;;;;;;;17.79;100.00;101698.31;5230523;28;20083;-69
2023/06/28 07:50:26;;;;;;;10.95;6.07;;;;;;;17.72;100.00;101706.16;5229487;28;20030;-69
2023/06/28 07:52:57;;;;;;;9.45;4.97;;;;;;;17.75;100.00;101700.47;5226435;28;20436;-69
2023/06/28 07:55:29;;;;;;;11.13;5.18;;;;;;;17.80;100.00;101695.50;5219183;28;20448;-69
2023/06/28 07:58:01;;;;;;;11.68;5.50;;;;;;;17.95;100.00;101704.03;5229993;28;20051;-69
2023/06/28 08:00:33;;;;;;;10.80;5.20;;;;;;;17.90;100.00;101700.06;5226024;28;20033;-69
2023/06/28 08:03:04;;;;;;;9.50;5.45;;;;;;;17.87;100.00;101692.25;5227463;28;20037;-69
2023/06/28 08:05:35;;;;;;;10.88;4.93;;;;;;;17.94;100.00;101693.38;5232561;28;20043;-69
2023/06/28 08:08:07;;;;;;;10.20;4.80;;;;;;;17.99;100.00;101699.19;5231276;28;20053;-69
2023/06/28 08:10:38;;;;;;;10.93;4.70;;;;;;;17.99;100.00;101691.94;5234422;28;20052;-69
2023/06/28 08:13:10;;;;;;;9.38;4.72;;;;;;;17.95;100.00;101692.38;5230864;28;20029;-69
2023/06/28 08:15:42;;;;;;;8.35;4.45;;;;;;;18.02;100.00;101698.91;5232429;28;20035;-69
2023/06/28 08:18:16;;;;;;;9.50;4.60;;;;;;;18.06;100.00;101697.59;5232769;28;20475;-69
2023/06/28 08:20:47;;;;;;;7.63;4.20;;;;;;;18.09;100.00;101688.38;5233065;28;20065;-69
2023/06/28 08:23:20;;;;;;;6.43;4.05;;;;;;;18.10;100.00;101688.25;5233770;28;20035;-69
2023/06/28 08:25:51;;;;;;;10.52;5.03;;;;;;;18.09;100.00;101685.69;5236774;28;20040;-69
2023/06/28 08:28:22;;;;;;;11.75;4.72;;;;;;;18.04;100.00;101680.69;5226657;28;20108;-69
2023/06/28 08:30:54;;;;;;;9.98;5.20;;;;;;;18.04;100.00;101691.50;5221013;28;20168;-69
2023/06/28 08:33:25;;;;;;;6.97;4.22;;;;;;;18.18;100.00;101688.34;5231304;28;20053;-69
2023/06/28 08:35:56;;;;;;;11.65;4.63;;;;;;;18.15;100.00;101695.88;5230619;28;20021;-69
2023/06/28 08:38:28;;;;;;;9.30;4.70;;;;;;;18.20;100.00;101694.44;5224096;28;20504;-69
2023/06/28 08:40:59;;;;;;;7.95;4.18;;;;;;;18.34;100.00;101693.13;5229880;28;20099;-69
2023/06/28 08:43:32;;;;;;;11.43;4.85;;;;;;;18.36;100.00;101696.53;5222389;28;20968;-69
2023/06/28 08:46:03;;;;;;;11.85;4.60;;;;;;;18.37;100.00;101686.56;5230166;28;20067;-69
2023/06/28 08:48:36;;;;;;;12.05;5.20;;;;;;;18.47;100.00;101689.25;5233926;28;20623;-69
2023/06/28 08:51:10;;;;;;;10.07;4.60;;;;;;;18.55;100.00;101684.78;5226525;28;20434;-69
2023/06/28 08:53:45;;;;;;;9.95;4.60;;;;;;;18.69;100.00;101693.41;5223758;28;20033;-70
2023/06/28 08:56:17;;;;;;;8.63;4.30;;;;;;;18.78;100.00;101693.34;5234404;28;20018;-69
2023/06/28 08:58:50;;;;;;;9.13;4.43;;;;;;;18.95;100.00;101691.72;5229607;28;20074;-69
2023/06/28 09:01:22;;;;;;;12.90;4.80;;;;;;;19.07;100.00;101684.25;5230400;28;20036;-69
2023/06/28 09:03:54;;;;;;;10.38;4.32;;;;;;;19.14;100.00;101689.91;5227229;28;20022;-69
2023/06/28 09:06:27;;;;;;;9.15;4.65;;;;;;;19.29;100.00;101693.78;5236138;28;20404;-69
2023/06/28 09:09:01;;;;;;;10.25;4.70;;;;;;;19.44;100.00;101685.97;5225137;28;20036;-69
2023/06/28 09:11:32;;;;;;;9.82;4.25;;;;;;;19.54;100.00;101684.03;5233546;28;20080;-69
2023/06/28 09:14:04;;;;;;;9.38;4.10;;;;;;;19.59;100.00;101680.84;5230362;28;20112;-69
2023/06/28 09:16:35;;;;;;;9.02;4.10;;;;;;;19.66;100.00;101676.53;5229316;28;20105;-70
2023/06/28 09:19:07;;;;;;;8.05;4.10;;;;;;;19.71;100.00;101665.22;5231108;28;20419;-70
2023/06/28 09:21:39;;;;;;;11.00;4.35;;;;;;;19.73;100.00;101674.94;5230413;28;20482;-70
2023/06/28 09:24:12;;;;;;;7.97;4.22;;;;;;;19.76;100.00;101669.19;5220662;28;20034;-70
2023/06/28 09:26:44;;;;;;;8.25;4.10;;;;;;;19.73;100.00;101665.94;5237391;28;20029;-70
2023/06/28 09:29:15;;;;;;;8.75;4.20;;;;;;;19.88;100.00;101661.63;5231401;28;20084;-69
2023/06/28 09:31:47;;;;;;;11.05;3.85;;;;;;;19.96;100.00;101669.84;5229444;28;20096;-70
2023/06/28 09:34:22;;;;;;;10.65;3.88;;;;;;;20.06;100.00;101669.75;5227057;28;20026;-70
2023/06/28 09:36:55;;;;;;;10.05;4.10;;;;;;;20.06;100.00;101677.88;5224859;28;20104;-70
2023/06/28 09:39:27;;;;;;;6.77;4.03;;;;;;;20.17;100.00;101666.75;5237113;28;20038;-70
2023/06/28 09:42:01;;;;;;;7.25;3.72;;;;;;;20.26;100.00;101672.22;5228804;28;20299;-70
2023/06/28 09:44:33;;;;;;;10.40;3.63;;;;;;;20.30;100.00;101665.47;5235341;28;20036;-71
2023/06/28 09:47:05;;;;;;;6.93;3.60;;;;;;;20.39;100.00;101669.91;5235865;28;20491;-70
2023/06/28 09:49:36;;;;;;;9.73;3.80;;;;;;;20.53;100.00;101663.88;5232115;28;20032;-70
2023/06/28 09:52:08;;;;;;;8.55;4.38;;;;;;;20.70;100.00;101669.41;5236556;28;20574;-71
2023/06/28 09:54:44;;;;;;;8.88;4.45;;;;;;;20.72;100.00;101661.97;5231511;28;20479;-70
2023/06/28 09:57:16;;;;;;;12.65;4.32;;;;;;;20.78;100.00;101661.28;5234474;28;20037;-70
2023/06/28 09:59:48;;;;;;;7.68;3.47;;;;;;;20.94;100.00;101655.06;5232903;28;20032;-71
2023/06/28 10:02:23;;;;;;;7.72;4.07;;;;;;;21.15;100.00;101657.31;5232960;28;20029;-70
2023/06/28 10:04:55;;;;;;;8.02;3.60;;;;;;;21.26;100.00;101648.84;5234911;28;20061;-70
2023/06/28 10:07:27;;;;;;;7.47;2.97;;;;;;;21.46;100.00;101640.41;5227319;28;20037;-70
2023/06/28 10:09:59;;;;;;;8.23;3.35;;;;;;;21.72;100.00;101646.50;5235001;28;20056;-70
2023/06/28 10:12:31;;;;;;;6.45;2.90;;;;;;;21.87;100.00;101653.97;5231488;28;20029;-71
2023/06/28 10:15:09;;;;;;;9.20;3.17;;;;;;;22.00;100.00;101648.84;5230949;28;20057;-71
2023/06/28 10:17:41;;;;;;;10.65;2.85;;;;;;;22.01;100.00;101642.38;5231795;28;20084;-70
2023/06/28 10:20:12;;;;;;;7.97;3.55;;;;;;;22.02;100.00;101640.53;5231971;28;20048;-71
2023/06/28 10:22:45;;;;;;;7.70;3.15;;;;;;;22.12;100.00;101650.16;5234830;28;20428;-71
2023/06/28 10:25:18;;;;;;;6.18;2.75;;;;;;;22.16;100.00;101642.50;5233044;28;20040;-71
2023/06/28 10:27:51;;;;;;;6.83;2.90;;;;;;;22.23;100.00;101642.69;5229971;28;20036;-71
2023/06/28 10:30:22;;;;;;;8.00;3.45;;;;;;;22.28;100.00;101640.28;5229437;28;20041;-71
2023/06/28 10:32:56;;;;;;;7.32;2.90;;;;;;;22.35;100.00;101637.72;5232674;28;20373;-71
2023/06/28 10:35:27;;;;;;;7.32;3.10;;;;;;;22.46;100.00;101643.63;5234427;28;20029;-71
2023/06/28 10:38:00;;;;;;;7.82;3.35;;;;;;;22.51;100.00;101637.66;5225136;28;20034;-71
2023/06/28 10:40:32;;;;;;;9.98;3.53;;;;;;;22.61;100.00;101643.75;5236324;28;20029;-71
2023/06/28 10:43:03;;;;;;;7.60;2.92;;;;;;;22.71;100.00;101640.81;5231347;28;20069;-71
2023/06/28 10:45:37;;;;;;;8.20;3.13;;;;;;;22.73;100.00;101632.47;5230408;28;20037;-70
2023/06/28 10:48:17;;;;;;;8.75;2.80;;;;;;;22.85;100.00;101642.75;5232034;28;20526;-71
2023/06/28 10:50:50;;;;;;;8.23;3.05;;;;;;;22.99;100.00;101632.13;5229134;28;20647;-71
2023/06/28 10:53:23;;;;;;;9.07;2.92;;;;;;;23.09;100.00;101635.50;5229015;28;20037;-71
2023/06/28 10:56:03;;;;;;;8.07;3.83;;;;;;;23.18;100.00;101642.56;5239659;28;20108;-71
2023/06/28 10:58:43;;;;;;;7.35;3.28;;;;;;;23.14;100.00;101641.25;5227695;28;20038;-71
2023/06/28 11:01:36;;;;;;;7.47;3.63;;;;;;;23.38;100.00;101631.22;5229277;28;20652;-70
2023/06/28 11:04:24;;;;;;;8.38;3.28;;;;;;;23.55;100.00;101632.75;5230346;28;20040;-70
2023/06/28 11:07:16;;;;;;;8.10;3.22;;;;;;;23.66;100.00;101621.41;5231068;28;20069;-70
2023/06/28 11:10:10;;;;;;;8.40;3.90;;;;;;;23.68;100.00;101610.31;5227957;28;20040;-71
2023/06/28 11:12:50;;;;;;;8.13;3.63;;;;;;;23.72;100.00;101608.94;5216943;28;20452;-72
2023/06/28 11:15:28;;;;;;;7.68;3.40;;;;;;;23.89;100.00;101612.34;5231483;28;20294;-71
2023/06/28 11:18:11;;;;;;;9.25;4.03;;;;;;;23.88;100.00;101607.94;5224003;28;20033;-71
2023/06/28 11:20:58;;;;;;;9.40;3.63;;;;;;;24.00;100.00;101611.03;5231702;28;20108;-71
2023/06/28 11:23:37;;;;;;;9.30;4.18;;;;;;;24.01;100.00;101612.72;5231593;28;20136;-71
2023/06/28 11:26:13;;;;;;;7.78;3.45;;;;;;;24.03;100.00;101603.34;5233946;28;20479;-71
2023/06/28 11:28:50;;;;;;;8.35;3.40;;;;;;;23.95;100.00;101603.44;5228112;28;20040;-71
2023/06/28 11:31:37;;;;;;;10.07;4.00;;;;;;;24.26;100.00;101597.78;5234704;28;20738;-71
2023/06/28 11:34:13;;;;;;;9.15;4.35;;;;;;;24.22;100.00;101596.47;5226200;28;20033;-71
2023/06/28 11:36:47;;;;;;;9.75;4.20;;;;;;;24.26;100.00;101605.97;5236174;28;20021;-71
2023/06/28 11:39:21;;;;;;;8.63;3.55;;;;;;;24.26;100.00;101605.13;5230045;28;20073;-71